sensor_id;sensor_type;location;lat;lon;timestamp;P1;durP1;ratioP1;P2;durP2;ratioP2
84275;SDS011;74432;51.212;3.254;2024-02-14T00:00:28;5.75;;;4.88;;
84275;SDS011;74432;51.212;3.254;2024-02-14T00:02:54;6.53;;;5.00;;
84275;SDS011;74432;51.212;3.254;2024-02-14T00:05:20;6.78;;;4.88;;
84275;SDS011;74432;51.212;3.254;2024-02-14T00:07:45;7.43;;;5.40;;
84275;SDS011;74432;51.212;3.254;2024-02-14T00:10:11;12.80;;;5.03;;
84275;SDS011;74432;51.212;3.254;2024-02-14T00:12:37;6.20;;;4.53;;
84275;SDS011;74432;51.212;3.254;2024-02-14T00:15:03;7.60;;;4.65;;
84275;SDS011;74432;51.212;3.254;2024-02-14T00:17:31;5.07;;;4.57;;
84275;SDS011;74432;51.212;3.254;2024-02-14T00:19:56;7.07;;;4.97;;
84275;SDS011;74432;51.212;3.254;2024-02-14T00:22:23;6.60;;;4.90;;
84275;SDS011;74432;51.212;3.254;2024-02-14T00:24:49;5.68;;;4.88;;
84275;SDS011;74432;51.212;3.254;2024-02-14T00:27:15;7.45;;;5.03;;
84275;SDS011;74432;51.212;3.254;2024-02-14T00:29:42;6.65;;;4.88;;
84275;SDS011;74432;51.212;3.254;2024-02-14T00:32:10;9.93;;;4.95;;
84275;SDS011;74432;51.212;3.254;2024-02-14T00:34:37;7.63;;;5.40;;
84275;SDS011;74432;51.212;3.254;2024-02-14T00:37:02;7.93;;;5.03;;
84275;SDS011;74432;51.212;3.254;2024-02-14T00:39:28;10.90;;;5.10;;
84275;SDS011;74432;51.212;3.254;2024-02-14T00:41:54;7.28;;;5.63;;
84275;SDS011;74432;51.212;3.254;2024-02-14T00:44:21;7.75;;;5.20;;
84275;SDS011;74432;51.212;3.254;2024-02-14T00:46:47;7.97;;;5.57;;
84275;SDS011;74432;51.212;3.254;2024-02-14T00:49:13;6.90;;;5.72;;
84275;SDS011;74432;51.212;3.254;2024-02-14T00:51:39;9.65;;;6.13;;
84275;SDS011;74432;51.212;3.254;2024-02-14T00:54:08;7.57;;;5.55;;
84275;SDS011;74432;51.212;3.254;2024-02-14T00:56:34;8.13;;;6.25;;
84275;SDS011;74432;51.212;3.254;2024-02-14T00:59:01;8.48;;;5.60;;
84275;SDS011;74432;51.212;3.254;2024-02-14T01:01:26;9.85;;;6.35;;
84275;SDS011;74432;51.212;3.254;2024-02-14T01:03:52;12.05;;;5.93;;
84275;SDS011;74432;51.212;3.254;2024-02-14T01:06:18;9.18;;;6.45;;
84275;SDS011;74432;51.212;3.254;2024-02-14T01:08:44;8.68;;;6.15;;
84275;SDS011;74432;51.212;3.254;2024-02-14T01:11:10;10.50;;;6.32;;
84275;SDS011;74432;51.212;3.254;2024-02-14T01:13:36;8.32;;;5.82;;
84275;SDS011;74432;51.212;3.254;2024-02-14T01:16:02;8.05;;;5.63;;
84275;SDS011;74432;51.212;3.254;2024-02-14T01:18:29;6.60;;;5.60;;
84275;SDS011;74432;51.212;3.254;2024-02-14T01:20:55;8.18;;;5.68;;
84275;SDS011;74432;51.212;3.254;2024-02-14T01:23:20;7.85;;;5.88;;
84275;SDS011;74432;51.212;3.254;2024-02-14T01:25:46;7.90;;;6.53;;
84275;SDS011;74432;51.212;3.254;2024-02-14T01:28:12;8.93;;;5.80;;
84275;SDS011;74432;51.212;3.254;2024-02-14T01:30:37;8.60;;;6.68;;
84275;SDS011;74432;51.212;3.254;2024-02-14T01:33:03;7.95;;;6.20;;
84275;SDS011;74432;51.212;3.254;2024-02-14T01:35:32;6.97;;;6.15;;
84275;SDS011;74432;51.212;3.254;2024-02-14T01:37:58;7.15;;;5.78;;
84275;SDS011;74432;51.212;3.254;2024-02-14T01:40:23;7.65;;;5.88;;
84275;SDS011;74432;51.212;3.254;2024-02-14T01:42:50;10.13;;;5.90;;
84275;SDS011;74432;51.212;3.254;2024-02-14T01:45:17;9.15;;;5.82;;
84275;SDS011;74432;51.212;3.254;2024-02-14T01:47:43;7.60;;;5.80;;
84275;SDS011;74432;51.212;3.254;2024-02-14T01:50:12;7.80;;;5.90;;
84275;SDS011;74432;51.212;3.254;2024-02-14T01:52:38;8.65;;;6.38;;
84275;SDS011;74432;51.212;3.254;2024-02-14T01:55:05;9.73;;;6.22;;
84275;SDS011;74432;51.212;3.254;2024-02-14T01:57:33;7.60;;;5.97;;
84275;SDS011;74432;51.212;3.254;2024-02-14T01:59:59;10.80;;;6.22;;
84275;SDS011;74432;51.212;3.254;2024-02-14T02:02:32;8.90;;;6.53;;
84275;SDS011;74432;51.212;3.254;2024-02-14T02:05:02;9.75;;;6.22;;
84275;SDS011;74432;51.212;3.254;2024-02-14T02:07:28;8.40;;;5.97;;
84275;SDS011;74432;51.212;3.254;2024-02-14T02:09:56;8.07;;;6.15;;
84275;SDS011;74432;51.212;3.254;2024-02-14T02:12:22;10.43;;;6.30;;
84275;SDS011;74432;51.212;3.254;2024-02-14T02:14:50;8.30;;;6.53;;
84275;SDS011;74432;51.212;3.254;2024-02-14T02:17:16;10.98;;;5.95;;
84275;SDS011;74432;51.212;3.254;2024-02-14T02:19:42;8.25;;;5.90;;
84275;SDS011;74432;51.212;3.254;2024-02-14T02:22:08;9.05;;;6.35;;
84275;SDS011;74432;51.212;3.254;2024-02-14T02:24:34;11.63;;;6.57;;
84275;SDS011;74432;51.212;3.254;2024-02-14T02:27:01;8.15;;;6.28;;
84275;SDS011;74432;51.212;3.254;2024-02-14T02:29:27;8.15;;;6.43;;
84275;SDS011;74432;51.212;3.254;2024-02-14T02:31:53;10.98;;;6.68;;
84275;SDS011;74432;51.212;3.254;2024-02-14T02:34:19;11.45;;;5.95;;
84275;SDS011;74432;51.212;3.254;2024-02-14T02:36:44;9.05;;;6.45;;
84275;SDS011;74432;51.212;3.254;2024-02-14T02:39:11;9.07;;;5.60;;
84275;SDS011;74432;51.212;3.254;2024-02-14T02:41:38;8.07;;;6.22;;
84275;SDS011;74432;51.212;3.254;2024-02-14T02:44:04;9.45;;;6.43;;
84275;SDS011;74432;51.212;3.254;2024-02-14T02:46:31;11.05;;;6.80;;
84275;SDS011;74432;51.212;3.254;2024-02-14T02:48:57;9.07;;;6.18;;
84275;SDS011;74432;51.212;3.254;2024-02-14T02:51:23;9.40;;;6.65;;
84275;SDS011;74432;51.212;3.254;2024-02-14T02:53:49;16.30;;;7.13;;
84275;SDS011;74432;51.212;3.254;2024-02-14T02:56:17;10.32;;;6.35;;
84275;SDS011;74432;51.212;3.254;2024-02-14T02:58:43;10.35;;;6.30;;
84275;SDS011;74432;51.212;3.254;2024-02-14T03:01:09;11.80;;;6.57;;
84275;SDS011;74432;51.212;3.254;2024-02-14T03:03:36;8.82;;;6.00;;
84275;SDS011;74432;51.212;3.254;2024-02-14T03:06:06;8.63;;;6.03;;
84275;SDS011;74432;51.212;3.254;2024-02-14T03:08:32;9.77;;;6.30;;
84275;SDS011;74432;51.212;3.254;2024-02-14T03:11:08;9.35;;;6.15;;
84275;SDS011;74432;51.212;3.254;2024-02-14T03:13:34;7.57;;;5.72;;
84275;SDS011;74432;51.212;3.254;2024-02-14T03:16:01;10.52;;;5.90;;
84275;SDS011;74432;51.212;3.254;2024-02-14T03:18:26;11.27;;;7.03;;
84275;SDS011;74432;51.212;3.254;2024-02-14T03:20:55;9.65;;;6.40;;
84275;SDS011;74432;51.212;3.254;2024-02-14T03:23:21;9.25;;;6.53;;
84275;SDS011;74432;51.212;3.254;2024-02-14T03:25:47;11.55;;;7.10;;
84275;SDS011;74432;51.212;3.254;2024-02-14T03:28:13;12.85;;;6.60;;
84275;SDS011;74432;51.212;3.254;2024-02-14T03:30:39;11.18;;;6.85;;
84275;SDS011;74432;51.212;3.254;2024-02-14T03:33:05;14.63;;;7.32;;
84275;SDS011;74432;51.212;3.254;2024-02-14T03:35:32;10.68;;;6.95;;
84275;SDS011;74432;51.212;3.254;2024-02-14T03:37:59;11.55;;;7.35;;
84275;SDS011;74432;51.212;3.254;2024-02-14T03:40:26;9.15;;;6.82;;
84275;SDS011;74432;51.212;3.254;2024-02-14T03:42:52;12.65;;;8.10;;
84275;SDS011;74432;51.212;3.254;2024-02-14T03:45:18;10.90;;;8.13;;
84275;SDS011;74432;51.212;3.254;2024-02-14T03:47:44;13.25;;;8.02;;
84275;SDS011;74432;51.212;3.254;2024-02-14T03:50:09;9.38;;;7.15;;
84275;SDS011;74432;51.212;3.254;2024-02-14T03:52:36;12.15;;;6.90;;
84275;SDS011;74432;51.212;3.254;2024-02-14T03:55:02;10.40;;;7.35;;
84275;SDS011;74432;51.212;3.254;2024-02-14T03:57:28;9.00;;;6.78;;
84275;SDS011;74432;51.212;3.254;2024-02-14T03:59:54;10.27;;;7.10;;
84275;SDS011;74432;51.212;3.254;2024-02-14T04:02:21;9.88;;;6.10;;
84275;SDS011;74432;51.212;3.254;2024-02-14T04:04:48;10.23;;;6.70;;
84275;SDS011;74432;51.212;3.254;2024-02-14T04:07:14;9.95;;;6.90;;
84275;SDS011;74432;51.212;3.254;2024-02-14T04:09:39;9.55;;;6.75;;
84275;SDS011;74432;51.212;3.254;2024-02-14T04:12:05;10.23;;;6.78;;
84275;SDS011;74432;51.212;3.254;2024-02-14T04:14:31;10.85;;;6.07;;
84275;SDS011;74432;51.212;3.254;2024-02-14T04:16:57;9.52;;;6.10;;
84275;SDS011;74432;51.212;3.254;2024-02-14T04:19:22;12.07;;;6.63;;
84275;SDS011;74432;51.212;3.254;2024-02-14T04:21:48;11.07;;;6.15;;
84275;SDS011;74432;51.212;3.254;2024-02-14T04:24:14;11.98;;;6.32;;
84275;SDS011;74432;51.212;3.254;2024-02-14T04:26:39;10.80;;;5.35;;
84275;SDS011;74432;51.212;3.254;2024-02-14T04:29:05;12.85;;;6.18;;
84275;SDS011;74432;51.212;3.254;2024-02-14T04:31:33;14.00;;;6.18;;
84275;SDS011;74432;51.212;3.254;2024-02-14T04:33:58;12.05;;;5.95;;
84275;SDS011;74432;51.212;3.254;2024-02-14T04:36:25;10.02;;;6.40;;
84275;SDS011;74432;51.212;3.254;2024-02-14T04:38:51;10.10;;;6.28;;
84275;SDS011;74432;51.212;3.254;2024-02-14T04:41:18;10.20;;;6.50;;
84275;SDS011;74432;51.212;3.254;2024-02-14T04:43:44;12.00;;;6.10;;
84275;SDS011;74432;51.212;3.254;2024-02-14T04:46:10;9.13;;;6.00;;
84275;SDS011;74432;51.212;3.254;2024-02-14T04:48:36;12.68;;;5.72;;
84275;SDS011;74432;51.212;3.254;2024-02-14T04:51:02;13.35;;;6.90;;
84275;SDS011;74432;51.212;3.254;2024-02-14T04:53:32;8.75;;;6.25;;
84275;SDS011;74432;51.212;3.254;2024-02-14T04:55:58;11.15;;;6.35;;
84275;SDS011;74432;51.212;3.254;2024-02-14T04:58:24;9.10;;;6.20;;
84275;SDS011;74432;51.212;3.254;2024-02-14T05:00:52;11.45;;;6.68;;
84275;SDS011;74432;51.212;3.254;2024-02-14T05:03:21;10.68;;;6.40;;
84275;SDS011;74432;51.212;3.254;2024-02-14T05:05:49;10.00;;;6.10;;
84275;SDS011;74432;51.212;3.254;2024-02-14T05:08:15;11.32;;;6.07;;
84275;SDS011;74432;51.212;3.254;2024-02-14T05:10:41;13.93;;;6.63;;
84275;SDS011;74432;51.212;3.254;2024-02-14T05:13:06;11.88;;;6.40;;
84275;SDS011;74432;51.212;3.254;2024-02-14T05:15:32;13.73;;;6.00;;
84275;SDS011;74432;51.212;3.254;2024-02-14T05:18:00;9.75;;;5.80;;
84275;SDS011;74432;51.212;3.254;2024-02-14T05:20:26;10.18;;;6.18;;
84275;SDS011;74432;51.212;3.254;2024-02-14T05:22:51;9.98;;;5.50;;
84275;SDS011;74432;51.212;3.254;2024-02-14T05:25:19;11.98;;;6.40;;
84275;SDS011;74432;51.212;3.254;2024-02-14T05:27:45;13.23;;;5.50;;
84275;SDS011;74432;51.212;3.254;2024-02-14T05:30:12;9.77;;;5.13;;
84275;SDS011;74432;51.212;3.254;2024-02-14T05:32:40;10.48;;;5.97;;
84275;SDS011;74432;51.212;3.254;2024-02-14T05:35:09;11.98;;;6.07;;
84275;SDS011;74432;51.212;3.254;2024-02-14T05:37:35;13.63;;;6.65;;
84275;SDS011;74432;51.212;3.254;2024-02-14T05:40:02;13.88;;;6.57;;
84275;SDS011;74432;51.212;3.254;2024-02-14T05:42:31;16.27;;;6.47;;
84275;SDS011;74432;51.212;3.254;2024-02-14T05:44:57;12.98;;;6.05;;
84275;SDS011;74432;51.212;3.254;2024-02-14T05:47:23;10.00;;;5.35;;
84275;SDS011;74432;51.212;3.254;2024-02-14T05:49:51;10.38;;;5.65;;
84275;SDS011;74432;51.212;3.254;2024-02-14T05:52:16;10.75;;;5.47;;
84275;SDS011;74432;51.212;3.254;2024-02-14T05:54:43;8.73;;;5.68;;
84275;SDS011;74432;51.212;3.254;2024-02-14T05:57:09;8.40;;;5.22;;
84275;SDS011;74432;51.212;3.254;2024-02-14T05:59:34;13.07;;;6.10;;
84275;SDS011;74432;51.212;3.254;2024-02-14T06:02:00;10.40;;;5.85;;
84275;SDS011;74432;51.212;3.254;2024-02-14T06:04:28;12.55;;;5.95;;
84275;SDS011;74432;51.212;3.254;2024-02-14T06:06:53;8.70;;;5.30;;
84275;SDS011;74432;51.212;3.254;2024-02-14T06:09:19;13.05;;;6.10;;
84275;SDS011;74432;51.212;3.254;2024-02-14T06:11:45;13.50;;;6.30;;
84275;SDS011;74432;51.212;3.254;2024-02-14T06:14:10;11.10;;;5.75;;
84275;SDS011;74432;51.212;3.254;2024-02-14T06:16:43;12.38;;;6.03;;
84275;SDS011;74432;51.212;3.254;2024-02-14T06:19:09;8.00;;;6.18;;
84275;SDS011;74432;51.212;3.254;2024-02-14T06:21:36;9.45;;;6.60;;
84275;SDS011;74432;51.212;3.254;2024-02-14T06:24:02;12.52;;;6.88;;
84275;SDS011;74432;51.212;3.254;2024-02-14T06:26:31;16.48;;;7.35;;
84275;SDS011;74432;51.212;3.254;2024-02-14T06:28:58;11.75;;;6.25;;
84275;SDS011;74432;51.212;3.254;2024-02-14T06:31:23;9.55;;;5.97;;
84275;SDS011;74432;51.212;3.254;2024-02-14T06:33:49;11.40;;;6.35;;
84275;SDS011;74432;51.212;3.254;2024-02-14T06:36:15;11.18;;;6.78;;
84275;SDS011;74432;51.212;3.254;2024-02-14T06:38:41;13.02;;;7.03;;
84275;SDS011;74432;51.212;3.254;2024-02-14T06:41:06;13.75;;;6.85;;
84275;SDS011;74432;51.212;3.254;2024-02-14T06:43:32;10.18;;;6.68;;
84275;SDS011;74432;51.212;3.254;2024-02-14T06:45:58;16.65;;;7.30;;
84275;SDS011;74432;51.212;3.254;2024-02-14T06:48:23;13.65;;;7.10;;
84275;SDS011;74432;51.212;3.254;2024-02-14T06:50:52;15.35;;;6.75;;
84275;SDS011;74432;51.212;3.254;2024-02-14T06:53:18;12.48;;;7.22;;
84275;SDS011;74432;51.212;3.254;2024-02-14T06:55:44;11.10;;;7.28;;
84275;SDS011;74432;51.212;3.254;2024-02-14T06:58:09;14.93;;;7.57;;
84275;SDS011;74432;51.212;3.254;2024-02-14T07:00:35;19.85;;;8.25;;
84275;SDS011;74432;51.212;3.254;2024-02-14T07:03:01;14.07;;;7.68;;
84275;SDS011;74432;51.212;3.254;2024-02-14T07:05:27;14.73;;;8.23;;
84275;SDS011;74432;51.212;3.254;2024-02-14T07:07:54;12.77;;;8.13;;
84275;SDS011;74432;51.212;3.254;2024-02-14T07:10:20;16.20;;;8.95;;
84275;SDS011;74432;51.212;3.254;2024-02-14T07:12:46;17.67;;;10.15;;
84275;SDS011;74432;51.212;3.254;2024-02-14T07:15:14;15.52;;;9.20;;
84275;SDS011;74432;51.212;3.254;2024-02-14T07:17:40;16.55;;;9.40;;
84275;SDS011;74432;51.212;3.254;2024-02-14T07:20:06;20.00;;;9.25;;
84275;SDS011;74432;51.212;3.254;2024-02-14T07:22:35;15.68;;;10.00;;
84275;SDS011;74432;51.212;3.254;2024-02-14T07:25:03;18.35;;;9.98;;
84275;SDS011;74432;51.212;3.254;2024-02-14T07:27:30;18.70;;;9.98;;
84275;SDS011;74432;51.212;3.254;2024-02-14T07:29:55;18.73;;;9.20;;
84275;SDS011;74432;51.212;3.254;2024-02-14T07:32:21;16.42;;;9.40;;
84275;SDS011;74432;51.212;3.254;2024-02-14T07:34:47;17.98;;;9.30;;
84275;SDS011;74432;51.212;3.254;2024-02-14T07:37:13;17.42;;;9.63;;
84275;SDS011;74432;51.212;3.254;2024-02-14T07:39:40;15.80;;;9.23;;
84275;SDS011;74432;51.212;3.254;2024-02-14T07:42:06;19.90;;;9.88;;
84275;SDS011;74432;51.212;3.254;2024-02-14T07:44:32;17.27;;;8.13;;
84275;SDS011;74432;51.212;3.254;2024-02-14T07:46:57;14.15;;;8.35;;
84275;SDS011;74432;51.212;3.254;2024-02-14T07:49:23;20.20;;;9.35;;
84275;SDS011;74432;51.212;3.254;2024-02-14T07:51:49;15.25;;;8.70;;
84275;SDS011;74432;51.212;3.254;2024-02-14T07:54:14;13.43;;;8.40;;
84275;SDS011;74432;51.212;3.254;2024-02-14T07:56:40;16.00;;;9.10;;
84275;SDS011;74432;51.212;3.254;2024-02-14T07:59:06;16.15;;;9.50;;
84275;SDS011;74432;51.212;3.254;2024-02-14T08:01:31;11.88;;;9.13;;
84275;SDS011;74432;51.212;3.254;2024-02-14T08:03:57;14.38;;;9.30;;
84275;SDS011;74432;51.212;3.254;2024-02-14T08:06:23;11.70;;;9.40;;
84275;SDS011;74432;51.212;3.254;2024-02-14T08:08:49;13.88;;;9.20;;
84275;SDS011;74432;51.212;3.254;2024-02-14T08:11:19;19.35;;;9.13;;
84275;SDS011;74432;51.212;3.254;2024-02-14T08:13:45;14.55;;;9.60;;
84275;SDS011;74432;51.212;3.254;2024-02-14T08:16:11;17.17;;;10.27;;
84275;SDS011;74432;51.212;3.254;2024-02-14T08:18:37;15.30;;;9.75;;
84275;SDS011;74432;51.212;3.254;2024-02-14T08:21:07;25.73;;;10.10;;
84275;SDS011;74432;51.212;3.254;2024-02-14T08:23:33;14.70;;;10.45;;
84275;SDS011;74432;51.212;3.254;2024-02-14T08:26:03;15.55;;;10.25;;
84275;SDS011;74432;51.212;3.254;2024-02-14T08:28:35;27.05;;;11.40;;
84275;SDS011;74432;51.212;3.254;2024-02-14T08:31:01;18.23;;;8.90;;
84275;SDS011;74432;51.212;3.254;2024-02-14T08:33:27;14.50;;;9.73;;
84275;SDS011;74432;51.212;3.254;2024-02-14T08:35:53;13.23;;;9.45;;
84275;SDS011;74432;51.212;3.254;2024-02-14T08:38:22;18.10;;;10.57;;
84275;SDS011;74432;51.212;3.254;2024-02-14T08:40:48;21.45;;;10.30;;
84275;SDS011;74432;51.212;3.254;2024-02-14T08:43:13;17.42;;;10.73;;
84275;SDS011;74432;51.212;3.254;2024-02-14T08:45:39;14.00;;;9.57;;
84275;SDS011;74432;51.212;3.254;2024-02-14T08:48:06;24.98;;;10.88;;
84275;SDS011;74432;51.212;3.254;2024-02-14T08:50:32;20.25;;;10.32;;
84275;SDS011;74432;51.212;3.254;2024-02-14T08:52:57;20.42;;;10.68;;
84275;SDS011;74432;51.212;3.254;2024-02-14T08:55:23;16.77;;;10.57;;
84275;SDS011;74432;51.212;3.254;2024-02-14T08:57:49;15.68;;;10.23;;
84275;SDS011;74432;51.212;3.254;2024-02-14T09:00:15;16.38;;;10.48;;
84275;SDS011;74432;51.212;3.254;2024-02-14T09:02:44;15.82;;;10.93;;
84275;SDS011;74432;51.212;3.254;2024-02-14T09:05:12;16.65;;;9.88;;
84275;SDS011;74432;51.212;3.254;2024-02-14T09:07:38;16.17;;;10.27;;
84275;SDS011;74432;51.212;3.254;2024-02-14T09:10:04;16.55;;;10.25;;
84275;SDS011;74432;51.212;3.254;2024-02-14T09:12:32;15.48;;;9.57;;
84275;SDS011;74432;51.212;3.254;2024-02-14T09:14:58;12.02;;;9.40;;
84275;SDS011;74432;51.212;3.254;2024-02-14T09:17:24;16.23;;;8.98;;
84275;SDS011;74432;51.212;3.254;2024-02-14T09:19:50;13.40;;;8.85;;
84275;SDS011;74432;51.212;3.254;2024-02-14T09:22:16;13.18;;;9.02;;
84275;SDS011;74432;51.212;3.254;2024-02-14T09:24:46;12.43;;;7.95;;
84275;SDS011;74432;51.212;3.254;2024-02-14T09:27:13;14.48;;;7.72;;
84275;SDS011;74432;51.212;3.254;2024-02-14T09:29:39;12.68;;;7.13;;
84275;SDS011;74432;51.212;3.254;2024-02-14T09:32:04;10.73;;;6.70;;
84275;SDS011;74432;51.212;3.254;2024-02-14T09:34:30;11.10;;;7.35;;
84275;SDS011;74432;51.212;3.254;2024-02-14T09:36:56;9.95;;;6.88;;
84275;SDS011;74432;51.212;3.254;2024-02-14T09:39:24;9.82;;;7.30;;
84275;SDS011;74432;51.212;3.254;2024-02-14T09:41:54;9.30;;;7.20;;
84275;SDS011;74432;51.212;3.254;2024-02-14T09:44:24;14.15;;;7.90;;
84275;SDS011;74432;51.212;3.254;2024-02-14T09:46:53;9.13;;;6.95;;
84275;SDS011;74432;51.212;3.254;2024-02-14T09:49:21;11.57;;;7.40;;
84275;SDS011;74432;51.212;3.254;2024-02-14T09:51:50;12.35;;;7.60;;
84275;SDS011;74432;51.212;3.254;2024-02-14T09:54:17;15.38;;;7.10;;
84275;SDS011;74432;51.212;3.254;2024-02-14T09:56:50;14.80;;;7.63;;
84275;SDS011;74432;51.212;3.254;2024-02-14T09:59:19;11.63;;;6.53;;
84275;SDS011;74432;51.212;3.254;2024-02-14T10:01:46;13.90;;;6.90;;
84275;SDS011;74432;51.212;3.254;2024-02-14T10:04:14;8.52;;;5.70;;
84275;SDS011;74432;51.212;3.254;2024-02-14T10:06:40;8.15;;;5.88;;
84275;SDS011;74432;51.212;3.254;2024-02-14T10:09:06;8.43;;;6.57;;
84275;SDS011;74432;51.212;3.254;2024-02-14T10:11:34;9.70;;;6.38;;
84275;SDS011;74432;51.212;3.254;2024-02-14T10:14:01;7.65;;;5.63;;
84275;SDS011;74432;51.212;3.254;2024-02-14T10:16:35;8.18;;;6.15;;
84275;SDS011;74432;51.212;3.254;2024-02-14T10:19:01;7.15;;;5.88;;
84275;SDS011;74432;51.212;3.254;2024-02-14T10:21:29;11.68;;;6.47;;
84275;SDS011;74432;51.212;3.254;2024-02-14T10:24:01;9.70;;;7.47;;
84275;SDS011;74432;51.212;3.254;2024-02-14T10:26:28;10.55;;;7.05;;
84275;SDS011;74432;51.212;3.254;2024-02-14T10:28:56;8.82;;;6.15;;
84275;SDS011;74432;51.212;3.254;2024-02-14T10:31:25;9.10;;;6.95;;
84275;SDS011;74432;51.212;3.254;2024-02-14T10:33:54;10.32;;;6.70;;
84275;SDS011;74432;51.212;3.254;2024-02-14T10:36:23;8.77;;;6.57;;
84275;SDS011;74432;51.212;3.254;2024-02-14T10:38:50;8.70;;;6.35;;
84275;SDS011;74432;51.212;3.254;2024-02-14T10:41:16;10.98;;;6.68;;
84275;SDS011;74432;51.212;3.254;2024-02-14T10:43:42;9.27;;;7.05;;
84275;SDS011;74432;51.212;3.254;2024-02-14T10:46:20;8.10;;;6.40;;
84275;SDS011;74432;51.212;3.254;2024-02-14T10:48:58;8.25;;;6.45;;
84275;SDS011;74432;51.212;3.254;2024-02-14T10:53:55;9.38;;;5.82;;
84275;SDS011;74432;51.212;3.254;2024-02-14T10:56:24;9.65;;;6.38;;
84275;SDS011;74432;51.212;3.254;2024-02-14T10:58:53;10.50;;;6.68;;
84275;SDS011;74432;51.212;3.254;2024-02-14T11:01:23;10.70;;;6.85;;
84275;SDS011;74432;51.212;3.254;2024-02-14T11:03:51;10.35;;;6.43;;
84275;SDS011;74432;51.212;3.254;2024-02-14T11:06:17;8.82;;;6.35;;
84275;SDS011;74432;51.212;3.254;2024-02-14T11:08:59;8.18;;;6.18;;
84275;SDS011;74432;51.212;3.254;2024-02-14T11:11:29;7.07;;;6.28;;
84275;SDS011;74432;51.212;3.254;2024-02-14T11:13:58;9.48;;;6.13;;
84275;SDS011;74432;51.212;3.254;2024-02-14T11:16:27;10.07;;;6.68;;
84275;SDS011;74432;51.212;3.254;2024-02-14T11:18:54;11.98;;;7.65;;
84275;SDS011;74432;51.212;3.254;2024-02-14T11:21:45;8.82;;;6.40;;
84275;SDS011;74432;51.212;3.254;2024-02-14T11:24:12;12.82;;;6.70;;
84275;SDS011;74432;51.212;3.254;2024-02-14T11:26:48;12.05;;;7.30;;
84275;SDS011;74432;51.212;3.254;2024-02-14T11:29:18;8.40;;;6.53;;
84275;SDS011;74432;51.212;3.254;2024-02-14T11:31:45;11.43;;;6.90;;
84275;SDS011;74432;51.212;3.254;2024-02-14T11:34:12;8.35;;;6.70;;
84275;SDS011;74432;51.212;3.254;2024-02-14T11:36:39;7.45;;;6.18;;
84275;SDS011;74432;51.212;3.254;2024-02-14T11:39:07;10.65;;;6.75;;
84275;SDS011;74432;51.212;3.254;2024-02-14T11:41:33;8.40;;;6.03;;
84275;SDS011;74432;51.212;3.254;2024-02-14T11:44:06;7.40;;;6.15;;
84275;SDS011;74432;51.212;3.254;2024-02-14T11:46:33;6.57;;;5.32;;
84275;SDS011;74432;51.212;3.254;2024-02-14T11:49:00;7.25;;;5.30;;
84275;SDS011;74432;51.212;3.254;2024-02-14T11:51:28;7.07;;;5.75;;
84275;SDS011;74432;51.212;3.254;2024-02-14T11:53:57;7.88;;;5.38;;
84275;SDS011;74432;51.212;3.254;2024-02-14T11:56:39;10.85;;;5.30;;
84275;SDS011;74432;51.212;3.254;2024-02-14T11:59:06;8.32;;;4.90;;
84275;SDS011;74432;51.212;3.254;2024-02-14T12:01:36;6.55;;;4.72;;
84275;SDS011;74432;51.212;3.254;2024-02-14T12:04:04;10.25;;;5.13;;
84275;SDS011;74432;51.212;3.254;2024-02-14T12:06:33;8.57;;;5.05;;
84275;SDS011;74432;51.212;3.254;2024-02-14T12:09:00;7.20;;;5.15;;
84275;SDS011;74432;51.212;3.254;2024-02-14T12:11:30;6.68;;;4.22;;
84275;SDS011;74432;51.212;3.254;2024-02-14T12:14:00;8.07;;;4.65;;
84275;SDS011;74432;51.212;3.254;2024-02-14T12:16:27;6.40;;;4.65;;
84275;SDS011;74432;51.212;3.254;2024-02-14T12:19:10;8.75;;;5.13;;
84275;SDS011;74432;51.212;3.254;2024-02-14T12:21:41;7.22;;;4.50;;
84275;SDS011;74432;51.212;3.254;2024-02-14T12:24:10;6.32;;;4.30;;
84275;SDS011;74432;51.212;3.254;2024-02-14T12:26:38;9.32;;;4.47;;
84275;SDS011;74432;51.212;3.254;2024-02-14T12:29:05;7.80;;;4.35;;
84275;SDS011;74432;51.212;3.254;2024-02-14T12:31:32;7.60;;;4.05;;
84275;SDS011;74432;51.212;3.254;2024-02-14T12:33:59;7.20;;;3.90;;
84275;SDS011;74432;51.212;3.254;2024-02-14T12:36:27;5.72;;;3.78;;
84275;SDS011;74432;51.212;3.254;2024-02-14T12:38:58;8.43;;;3.28;;
84275;SDS011;74432;51.212;3.254;2024-02-14T12:41:24;4.60;;;3.03;;
84275;SDS011;74432;51.212;3.254;2024-02-14T12:43:54;5.15;;;3.10;;
84275;SDS011;74432;51.212;3.254;2024-02-14T12:46:21;5.65;;;3.40;;
84275;SDS011;74432;51.212;3.254;2024-02-14T12:48:47;6.07;;;3.17;;
84275;SDS011;74432;51.212;3.254;2024-02-14T12:51:15;5.40;;;3.05;;
84275;SDS011;74432;51.212;3.254;2024-02-14T12:53:41;3.22;;;2.63;;
84275;SDS011;74432;51.212;3.254;2024-02-14T12:56:07;3.88;;;2.50;;
84275;SDS011;74432;51.212;3.254;2024-02-14T12:58:33;3.80;;;2.58;;
84275;SDS011;74432;51.212;3.254;2024-02-14T13:01:00;2.78;;;2.47;;
84275;SDS011;74432;51.212;3.254;2024-02-14T13:03:26;3.10;;;2.28;;
84275;SDS011;74432;51.212;3.254;2024-02-14T13:05:53;3.72;;;2.10;;
84275;SDS011;74432;51.212;3.254;2024-02-14T13:08:22;2.80;;;2.13;;
84275;SDS011;74432;51.212;3.254;2024-02-14T13:10:48;4.15;;;2.45;;
84275;SDS011;74432;51.212;3.254;2024-02-14T13:13:14;3.08;;;2.40;;
84275;SDS011;74432;51.212;3.254;2024-02-14T13:15:40;4.45;;;2.15;;
84275;SDS011;74432;51.212;3.254;2024-02-14T13:18:08;3.25;;;2.08;;
84275;SDS011;74432;51.212;3.254;2024-02-14T13:20:34;2.50;;;2.30;;
84275;SDS011;74432;51.212;3.254;2024-02-14T13:23:00;5.25;;;2.40;;
84275;SDS011;74432;51.212;3.254;2024-02-14T13:25:27;3.33;;;2.40;;
84275;SDS011;74432;51.212;3.254;2024-02-14T13:27:53;2.47;;;2.20;;
84275;SDS011;74432;51.212;3.254;2024-02-14T13:44:07;3.47;;;2.22;;
84275;SDS011;74432;51.212;3.254;2024-02-14T13:46:33;5.57;;;2.50;;
84275;SDS011;74432;51.212;3.254;2024-02-14T13:48:59;3.33;;;2.40;;
84275;SDS011;74432;51.212;3.254;2024-02-14T13:51:25;4.05;;;2.78;;
84275;SDS011;74432;51.212;3.254;2024-02-14T13:53:54;4.95;;;2.13;;
84275;SDS011;74432;51.212;3.254;2024-02-14T13:56:20;5.90;;;2.53;;
84275;SDS011;74432;51.212;3.254;2024-02-14T13:58:48;4.43;;;2.70;;
84275;SDS011;74432;51.212;3.254;2024-02-14T14:01:16;4.00;;;2.00;;
84275;SDS011;74432;51.212;3.254;2024-02-14T14:03:42;3.85;;;2.50;;
84275;SDS011;74432;51.212;3.254;2024-02-14T14:06:08;5.05;;;2.53;;
84275;SDS011;74432;51.212;3.254;2024-02-14T14:08:34;5.32;;;2.60;;
84275;SDS011;74432;51.212;3.254;2024-02-14T14:11:03;4.07;;;2.58;;
84275;SDS011;74432;51.212;3.254;2024-02-14T14:13:29;4.95;;;2.35;;
84275;SDS011;74432;51.212;3.254;2024-02-14T14:15:56;6.57;;;2.75;;
84275;SDS011;74432;51.212;3.254;2024-02-14T14:18:22;3.85;;;2.55;;
84275;SDS011;74432;51.212;3.254;2024-02-14T14:20:51;6.50;;;2.75;;
84275;SDS011;74432;51.212;3.254;2024-02-14T14:23:20;6.80;;;2.60;;
84275;SDS011;74432;51.212;3.254;2024-02-14T14:25:45;4.38;;;2.60;;
84275;SDS011;74432;51.212;3.254;2024-02-14T14:28:11;7.20;;;2.55;;
84275;SDS011;74432;51.212;3.254;2024-02-14T14:30:37;6.72;;;2.40;;
84275;SDS011;74432;51.212;3.254;2024-02-14T14:33:03;6.15;;;2.20;;
84275;SDS011;74432;51.212;3.254;2024-02-14T14:35:29;4.20;;;2.65;;
84275;SDS011;74432;51.212;3.254;2024-02-14T14:37:58;6.55;;;2.72;;
84275;SDS011;74432;51.212;3.254;2024-02-14T14:40:25;7.35;;;2.20;;
84275;SDS011;74432;51.212;3.254;2024-02-14T14:42:51;6.72;;;2.72;;
84275;SDS011;74432;51.212;3.254;2024-02-14T14:45:17;6.43;;;2.45;;
84275;SDS011;74432;51.212;3.254;2024-02-14T14:47:43;4.88;;;2.30;;
84275;SDS011;74432;51.212;3.254;2024-02-14T14:50:10;10.18;;;2.83;;
84275;SDS011;74432;51.212;3.254;2024-02-14T14:52:36;6.22;;;2.15;;
84275;SDS011;74432;51.212;3.254;2024-02-14T14:55:03;6.68;;;2.85;;